Time;durP1;ratioP1;P1;durP2;ratioP2;P2;SDS_P1;SDS_P2;PMS_P1;PMS_P2;Temp;Humidity;BMP_temperature;BMP_pressure;BME280_temperature;BME280_humidity;BME280_pressure;Samples;Min_cycle;Max_cycle;Signal;HPM_P1;HPM_P2
2022/02/23 00:04:52;;;;;;;12.35;1.87;;;7.60;99.90;;;;;;6680217;88;20654;-75
2022/02/23 00:14:54;;;;;;;8.60;1.62;;;7.60;99.90;;;;;;6680761;88;20195;-74
2022/02/23 00:24:55;;;;;;;12.77;1.90;;;7.60;99.90;;;;;;6679471;88;20183;-74
2022/02/23 00:34:56;;;;;;;8.85;1.58;;;7.60;99.90;;;;;;6674275;88;20272;-77
2022/02/23 00:44:56;;;;;;;13.27;2.28;;;7.60;99.90;;;;;;6675709;88;20225;-76
2022/02/23 00:54:57;;;;;;;10.23;1.75;;;7.50;99.90;;;;;;6678526;88;20240;-74
2022/02/23 01:04:57;;;;;;;10.07;1.80;;;7.40;99.90;;;;;;6676448;88;20244;-75
2022/02/23 01:14:59;;;;;;;8.60;1.40;;;7.30;99.90;;;;;;6675682;88;20222;-75
2022/02/23 01:25:00;;;;;;;11.80;1.83;;;7.10;99.90;;;;;;6678985;88;20183;-75
2022/02/23 01:35:00;;;;;;;16.77;1.60;;;7.00;99.90;;;;;;6678382;88;20384;-75
2022/02/23 01:45:01;;;;;;;6.80;1.40;;;6.80;99.90;;;;;;6681455;88;20190;-75
2022/02/23 01:55:03;;;;;;;13.03;1.93;;;6.70;99.90;;;;;;6681565;88;20392;-75
2022/02/23 02:05:05;;;;;;;12.48;1.60;;;6.70;99.90;;;;;;6682187;88;20548;-75
2022/02/23 02:15:07;;;;;;;7.68;1.60;;;6.50;99.90;;;;;;6679758;88;20361;-75
2022/02/23 02:25:08;;;;;;;10.13;1.35;;;6.40;99.90;;;;;;6677082;88;20703;-75
2022/02/23 02:35:09;;;;;;;8.90;1.48;;;6.30;99.90;;;;;;6675395;88;20211;-74
2022/02/23 02:45:10;;;;;;;13.05;1.73;;;6.20;99.90;;;;;;6676885;88;20194;-75
2022/02/23 02:55:10;;;;;;;10.18;1.77;;;5.90;99.90;;;;;;6674767;88;20213;-75
2022/02/23 03:05:11;;;;;;;9.07;1.65;;;6.00;99.90;;;;;;6680866;88;20203;-75
2022/02/23 03:15:11;;;;;;;13.25;2.28;;;6.10;99.90;;;;;;6683209;88;21026;-75
2022/02/23 03:25:12;;;;;;;18.08;2.12;;;6.00;99.90;;;;;;6681270;88;20211;-76
2022/02/23 03:35:12;;;;;;;13.55;2.12;;;6.10;99.90;;;;;;6679264;88;20229;-74
2022/02/23 03:45:13;;;;;;;10.02;2.15;;;6.00;99.90;;;;;;6679570;88;20304;-75
2022/02/23 03:55:15;;;;;;;11.00;2.28;;;5.80;99.90;;;;;;6681499;88;20299;-75
2022/02/23 04:05:16;;;;;;;10.80;1.90;;;5.70;99.90;;;;;;6678831;88;20236;-75
2022/02/23 04:15:16;;;;;;;11.90;1.60;;;5.60;99.90;;;;;;6671986;88;20209;-75
2022/02/23 04:25:17;;;;;;;11.12;1.95;;;5.60;99.90;;;;;;6679055;88;20258;-75
2022/02/23 04:35:18;;;;;;;14.32;1.73;;;5.50;99.90;;;;;;6679347;88;21025;-75
2022/02/23 04:45:19;;;;;;;9.32;1.60;;;5.50;99.90;;;;;;6678902;88;20616;-75
2022/02/23 04:55:20;;;;;;;12.30;2.10;;;5.40;99.90;;;;;;6679401;88;20376;-75
2022/02/23 05:05:21;;;;;;;12.00;1.80;;;5.40;99.90;;;;;;6682402;88;20222;-75
2022/02/23 05:15:21;;;;;;;9.73;1.77;;;5.40;99.90;;;;;;6673929;88;21253;-75
2022/02/23 05:25:24;;;;;;;7.87;1.60;;;5.40;99.90;;;;;;6678778;88;20191;-75
2022/02/23 05:35:24;;;;;;;7.78;1.60;;;5.40;99.90;;;;;;6681958;88;20635;-75
2022/02/23 05:45:25;;;;;;;10.48;2.47;;;5.40;99.90;;;;;;6678720;88;20258;-75
2022/02/23 05:55:25;;;;;;;9.98;1.58;;;5.40;99.90;;;;;;6687672;88;20282;-75
2022/02/23 06:05:26;;;;;;;9.38;1.83;;;5.40;99.90;;;;;;6686503;88;20293;-75
2022/02/23 06:15:27;;;;;;;11.63;2.00;;;5.40;99.90;;;;;;6676699;88;20197;-75
2022/02/23 06:25:27;;;;;;;9.20;1.60;;;5.30;99.90;;;;;;6676899;88;20191;-74
2022/02/23 06:35:28;;;;;;;8.45;1.65;;;5.20;99.90;;;;;;6681732;88;20222;-74
2022/02/23 06:45:28;;;;;;;14.77;1.95;;;5.20;99.90;;;;;;6681232;88;20195;-75
2022/02/23 06:55:29;;;;;;;7.28;1.67;;;5.40;99.90;;;;;;6678495;88;20679;-75
2022/02/23 07:05:30;;;;;;;9.57;1.50;;;5.30;99.90;;;;;;6683589;88;20798;-75
2022/02/23 07:15:31;;;;;;;10.82;2.22;;;5.50;99.90;;;;;;6684847;88;20183;-75
2022/02/23 07:25:32;;;;;;;16.00;1.80;;;5.60;99.90;;;;;;6686073;88;20190;-75
2022/02/23 07:35:32;;;;;;;9.68;1.52;;;5.90;99.90;;;;;;6675368;88;20232;-74
2022/02/23 07:45:35;;;;;;;10.23;1.70;;;6.00;99.90;;;;;;6673533;88;20294;-74
2022/02/23 07:55:37;;;;;;;10.07;1.70;;;6.30;99.90;;;;;;6672268;88;20302;-74
2022/02/23 08:05:37;;;;;;;9.13;1.80;;;7.00;99.90;;;;;;6673670;88;20210;-74
2022/02/23 08:25:57;;;;;;;11.38;2.15;;;9.20;99.90;;;;;;6672506;88;20229;-75
2022/02/23 08:35:58;;;;;;;11.68;2.00;;;9.40;99.90;;;;;;6674405;88;20221;-74
2022/02/23 08:45:58;;;;;;;12.00;1.80;;;9.50;99.90;;;;;;6675019;88;20224;-75
2022/02/23 08:55:59;;;;;;;6.13;1.37;;;9.80;99.90;;;;;;6671329;88;20248;-75
2022/02/23 09:05:59;;;;;;;9.82;1.20;;;10.20;99.90;;;;;;6672067;88;20567;-75
2022/02/23 09:16:00;;;;;;;12.00;1.80;;;10.10;99.90;;;;;;6674128;88;20653;-74
2022/02/23 09:26:04;;;;;;;9.65;1.40;;;10.70;99.90;;;;;;6672948;88;20235;-74
2022/02/23 09:36:05;;;;;;;9.23;1.67;;;11.00;99.90;;;;;;6673147;77;20212;-74
2022/02/23 09:46:08;;;;;;;9.87;1.47;;;11.90;99.90;;;;;;6668558;88;20194;-73
2022/02/23 09:56:09;;;;;;;7.78;1.40;;;11.50;99.90;;;;;;6670888;88;20561;-73
2022/02/23 10:06:32;;;;;;;6.80;1.27;;;11.90;99.90;;;;;;6669465;89;20243;-73
2022/02/23 10:16:36;;;;;;;7.43;1.52;;;12.40;99.90;;;;;;6670376;88;20324;-73
2022/02/23 10:26:36;;;;;;;9.57;1.40;;;12.40;99.90;;;;;;6670035;88;20203;-74
2022/02/23 10:36:38;;;;;;;7.15;1.42;;;12.70;99.90;;;;;;6670980;88;21102;-75
2022/02/23 10:46:39;;;;;;;7.22;1.50;;;12.90;99.90;;;;;;6673329;88;20244;-74
2022/02/23 10:56:42;;;;;;;7.40;1.70;;;14.00;99.90;;;;;;6666987;88;20246;-73
2022/02/23 11:06:43;;;;;;;5.70;1.25;;;14.60;98.00;;;;;;6674475;88;20190;-74
2022/02/23 11:16:44;;;;;;;8.60;1.05;;;14.50;97.40;;;;;;6676398;88;20874;-74
2022/02/23 11:26:46;;;;;;;7.30;1.00;;;15.30;95.00;;;;;;6669235;88;20709;-73
2022/02/23 11:36:49;;;;;;;6.97;1.08;;;14.90;94.30;;;;;;6670765;88;20739;-72
2022/02/23 11:46:53;;;;;;;4.12;1.00;;;15.40;92.70;;;;;;6671429;88;20273;-74
2022/02/23 11:56:54;;;;;;;4.70;1.00;;;16.30;92.90;;;;;;6672082;88;20242;-74
2022/02/23 12:07:12;;;;;;;4.45;1.05;;;15.80;89.90;;;;;;6666791;88;20188;-73
2022/02/23 12:17:44;;;;;;;3.78;0.93;;;16.00;88.30;;;;;;6668520;88;20237;-74
2022/02/23 12:27:46;;;;;;;4.05;1.08;;;16.10;83.60;;;;;;6671797;88;20183;-74
2022/02/23 12:37:48;;;;;;;5.43;1.10;;;14.80;84.60;;;;;;6675689;88;20215;-74
2022/02/23 12:48:01;;;;;;;3.90;0.90;;;14.70;87.70;;;;;;6672033;88;20238;-74
2022/02/23 12:58:05;;;;;;;4.45;0.98;;;16.10;85.20;;;;;;6670719;88;20219;-74
2022/02/23 13:08:09;;;;;;;4.10;1.10;;;16.00;85.80;;;;;;6667467;88;20726;-76
2022/02/23 13:18:10;;;;;;;4.80;1.30;;;17.00;83.60;;;;;;6665463;88;20453;-74
2022/02/23 13:28:11;;;;;;;4.68;1.40;;;17.90;82.10;;;;;;6669525;88;20253;-74
2022/02/23 13:38:12;;;;;;;5.43;1.27;;;16.50;83.70;;;;;;6669493;88;20644;-74
2022/02/23 13:48:13;;;;;;;4.87;1.33;;;16.40;84.10;;;;;;6673632;88;20222;-74
2022/02/23 13:58:18;;;;;;;6.68;1.40;;;16.90;85.20;;;;;;6674816;89;20325;-74
2022/02/23 14:08:19;;;;;;;5.57;1.30;;;16.80;83.00;;;;;;6672240;89;20194;-74
2022/02/23 14:18:25;;;;;;;5.87;1.05;;;16.60;84.80;;;;;;6671164;89;20315;-74
2022/02/23 14:28:37;;;;;;;7.78;1.10;;;15.50;86.40;;;;;;6670081;88;20188;-74
2022/02/23 14:38:37;;;;;;;5.55;0.90;;;16.10;84.10;;;;;;6671653;89;20326;-74
2022/02/23 14:48:38;;;;;;;3.87;1.10;;;14.70;87.00;;;;;;6668689;89;20222;-74
2022/02/23 14:58:38;;;;;;;3.85;1.08;;;15.00;86.60;;;;;;6675093;88;20742;-74
2022/02/23 15:08:40;;;;;;;8.15;1.33;;;14.40;87.60;;;;;;6667391;88;20235;-73
2022/02/23 15:18:41;;;;;;;4.18;1.02;;;14.30;88.20;;;;;;6667145;88;20171;-72
2022/02/23 15:28:41;;;;;;;5.22;1.02;;;13.90;88.70;;;;;;6664390;88;20302;-73
2022/02/23 15:38:42;;;;;;;2.55;0.65;;;13.50;87.90;;;;;;6676849;88;20192;-73
2022/02/23 15:48:42;;;;;;;4.57;1.20;;;13.30;86.30;;;;;;6690994;88;20504;-73
2022/02/23 15:58:43;;;;;;;2.55;0.60;;;13.10;87.10;;;;;;6671532;88;20619;-74
2022/02/23 16:08:44;;;;;;;6.12;0.90;;;12.70;86.60;;;;;;6671377;88;20575;-73
2022/02/23 16:18:45;;;;;;;4.68;0.98;;;12.80;87.10;;;;;;6676571;88;20684;-74
2022/02/23 16:28:46;;;;;;;3.00;0.80;;;12.40;87.60;;;;;;6670311;88;20786;-75
2022/02/23 16:38:46;;;;;;;4.32;0.95;;;12.20;89.60;;;;;;6670087;89;20269;-75
2022/02/23 16:48:48;;;;;;;6.03;1.10;;;11.90;91.10;;;;;;6669389;88;20192;-75
2022/02/23 16:58:49;;;;;;;3.05;0.93;;;11.50;91.60;;;;;;6673641;88;20335;-75
2022/02/23 17:08:50;;;;;;;5.03;1.00;;;11.10;91.90;;;;;;6672521;88;20322;-74
2022/02/23 17:18:51;;;;;;;7.47;1.40;;;10.70;93.20;;;;;;6674615;88;20256;-75
2022/02/23 17:28:51;;;;;;;3.27;0.90;;;10.40;93.20;;;;;;6669704;88;20224;-74
2022/02/23 17:38:52;;;;;;;5.90;1.00;;;10.30;93.80;;;;;;6671914;88;20733;-75
2022/02/23 17:48:53;;;;;;;5.30;1.30;;;10.00;94.30;;;;;;6671318;89;20694;-76
2022/02/23 17:58:53;;;;;;;13.52;3.45;;;9.80;95.30;;;;;;6668519;89;20838;-76
2022/02/23 18:08:54;;;;;;;8.10;2.30;;;9.20;97.60;;;;;;6666221;89;20652;-76
2022/02/23 18:18:54;;;;;;;4.70;1.33;;;9.30;97.90;;;;;;6667052;89;20206;-75
2022/02/23 18:28:55;;;;;;;5.28;1.90;;;9.30;98.00;;;;;;6665160;89;20257;-75
2022/02/23 18:38:56;;;;;;;8.68;3.40;;;8.60;99.90;;;;;;6667403;88;20226;-75
2022/02/23 18:48:56;;;;;;;11.68;3.80;;;8.30;99.90;;;;;;6673061;88;20657;-74
2022/02/23 18:58:58;;;;;;;11.80;5.53;;;8.10;99.90;;;;;;6669573;88;20223;-74
2022/02/23 19:08:58;;;;;;;16.77;4.87;;;8.10;99.90;;;;;;6671335;88;20656;-75
2022/02/23 19:18:59;;;;;;;11.10;4.75;;;7.80;99.90;;;;;;6673379;88;20252;-75
2022/02/23 19:28:59;;;;;;;6.07;2.65;;;7.70;99.90;;;;;;6671345;88;20212;-74
2022/02/23 19:39:00;;;;;;;4.82;2.03;;;7.40;99.90;;;;;;6678010;88;20759;-74
2022/02/23 19:49:01;;;;;;;10.15;2.40;;;7.20;99.90;;;;;;6668776;88;20283;-75
2022/02/23 19:59:02;;;;;;;4.75;1.42;;;7.10;99.90;;;;;;6661639;88;20252;-74
2022/02/23 20:09:04;;;;;;;5.35;2.45;;;7.50;99.90;;;;;;6671550;88;20810;-73
2022/02/23 20:19:04;;;;;;;6.70;2.30;;;7.20;99.90;;;;;;6668213;88;20176;-73
2022/02/23 20:29:05;;;;;;;6.30;2.30;;;7.30;99.90;;;;;;6667188;88;20246;-74
2022/02/23 20:39:06;;;;;;;8.43;3.35;;;7.40;99.90;;;;;;6677639;88;20972;-74
2022/02/23 20:49:06;;;;;;;6.10;2.12;;;7.40;99.90;;;;;;6666352;88;20288;-73
2022/02/23 20:59:07;;;;;;;7.32;2.15;;;7.50;99.90;;;;;;6664396;88;20320;-74
2022/02/23 21:09:07;;;;;;;6.35;2.30;;;7.40;99.90;;;;;;6665126;88;20398;-74
2022/02/23 21:19:08;;;;;;;7.72;2.35;;;7.40;99.90;;;;;;6665097;88;20666;-74
2022/02/23 21:29:09;;;;;;;9.38;2.30;;;7.60;99.90;;;;;;6665311;88;20200;-74
2022/02/23 21:39:50;;;;;;;10.15;2.20;;;7.70;99.90;;;;;;6717695;77;20190;-81
2022/02/23 21:49:52;;;;;;;5.50;1.95;;;7.80;99.90;;;;;;6711368;88;20201;-80
2022/02/23 21:59:52;;;;;;;6.28;1.85;;;8.00;99.90;;;;;;6708584;88;20214;-79
2022/02/23 22:09:53;;;;;;;7.05;1.65;;;8.10;99.90;;;;;;6709184;88;20216;-77
2022/02/23 22:19:53;;;;;;;4.62;1.83;;;8.10;99.90;;;;;;6709546;88;20214;-79
2022/02/23 22:29:53;;;;;;;4.85;1.35;;;8.20;99.90;;;;;;6711704;88;20197;-79
2022/02/23 22:39:54;;;;;;;5.10;1.40;;;8.30;99.90;;;;;;6704517;88;20206;-77
2022/02/23 22:49:55;;;;;;;4.97;1.33;;;8.30;99.90;;;;;;6691867;88;20196;-77
2022/02/23 22:59:55;;;;;;;7.53;1.45;;;8.30;99.90;;;;;;6687272;88;20335;-78
2022/02/23 23:09:56;;;;;;;6.07;1.40;;;8.30;99.90;;;;;;6690672;88;20348;-78
2022/02/23 23:19:57;;;;;;;9.15;1.30;;;8.30;99.90;;;;;;6696811;88;20748;-77
2022/02/23 23:29:57;;;;;;;4.45;1.50;;;8.30;99.90;;;;;;6707679;88;20205;-77
2022/02/23 23:39:58;;;;;;;4.68;1.48;;;8.20;99.90;;;;;;6707373;88;20198;-77
2022/02/23 23:49:59;;;;;;;6.50;1.73;;;8.00;99.90;;;;;;6706676;88;20699;-78
